createdAt,value
2019-02-03T00:01:39.344Z,54.27
2019-02-03T00:03:43.511Z,56.88
2019-02-03T00:05:45.179Z,55.40
2019-02-03T00:07:46.544Z,54.25
2019-02-03T00:09:47.929Z,55.35
2019-02-03T00:11:49.354Z,54.25
2019-02-03T00:13:50.781Z,52.93
2019-02-03T00:15:52.265Z,48.60
2019-02-03T00:17:53.699Z,52.65
2019-02-03T00:19:55.365Z,52.62
2019-02-03T00:21:56.758Z,50.28
2019-02-03T00:23:58.218Z,50.98
2019-02-03T00:25:59.709Z,52.70
2019-02-03T00:28:01.098Z,55.40
2019-02-03T00:30:10.281Z,49.42
2019-02-03T00:32:11.654Z,54.33
2019-02-03T00:34:13.027Z,50.67
2019-02-03T00:36:14.642Z,51.25
2019-02-03T00:38:22.916Z,52.80
2019-02-03T00:40:19.336Z,54.90
2019-02-03T00:42:20.838Z,51.35
2019-02-03T00:44:22.277Z,52.60
2019-02-03T00:46:23.896Z,54.98
2019-02-03T00:48:25.592Z,50.38
2019-02-03T00:50:27.165Z,49.23
2019-02-03T00:52:28.577Z,51.75
2019-02-03T00:54:30.051Z,48.73
2019-02-03T00:56:31.530Z,48.70
2019-02-03T00:58:33.225Z,45.40
2019-02-03T01:00:34.699Z,46.25
2019-02-03T01:02:36.080Z,48.70
2019-02-03T01:04:37.520Z,45.12
2019-02-03T01:06:39.217Z,41.98
2019-02-03T01:08:40.686Z,46.90
2019-02-03T01:10:42.268Z,41.25
2019-02-03T01:12:43.862Z,41.15
2019-02-03T01:14:45.428Z,43.87
2019-02-03T01:16:46.837Z,41.92
2019-02-03T01:18:48.203Z,43.02
2019-02-03T01:20:49.569Z,43.75
2019-02-03T01:22:51.081Z,47.03
2019-02-03T01:24:53.253Z,41.75
2019-02-03T01:26:54.631Z,40.10
2019-02-03T01:28:56.053Z,39.15
2019-02-03T01:30:57.504Z,40.25
2019-02-03T01:32:59.167Z,40.95
2019-02-03T01:35:00.600Z,44.27
2019-02-03T01:37:02.245Z,41.37
2019-02-03T01:39:06.617Z,41.02
2019-02-03T01:41:08.157Z,42.40
2019-02-03T01:43:09.933Z,40.33
2019-02-03T01:45:19.172Z,38.33
2019-02-03T01:47:20.764Z,40.40
2019-02-03T01:49:22.139Z,42.13
2019-02-03T01:51:23.517Z,40.90
2019-02-03T01:53:25.229Z,44.23
2019-02-03T01:55:26.609Z,39.38
2019-02-03T01:57:27.987Z,39.80
2019-02-03T01:59:29.405Z,39.30
2019-02-03T02:01:30.785Z,40.08
2019-02-03T02:03:32.147Z,40.63
2019-02-03T02:05:33.910Z,40.10
2019-02-03T02:07:35.266Z,38.17
2019-02-03T02:09:36.639Z,35.25
2019-02-03T02:11:38.630Z,39.25
2019-02-03T02:13:40.007Z,37.98
2019-02-03T02:15:41.369Z,39.78
2019-02-03T02:17:42.887Z,38.10
2019-02-03T02:19:44.477Z,37.70
2019-02-03T02:21:45.858Z,38.38
2019-02-03T02:23:47.215Z,38.63
2019-02-03T02:25:48.633Z,35.92
2019-02-03T02:27:50.086Z,36.70
2019-02-03T02:29:51.590Z,34.35
2019-02-03T02:31:53.409Z,36.75
2019-02-03T02:33:54.765Z,33.80
2019-02-03T02:35:56.156Z,32.60
2019-02-03T02:38:06.412Z,30.27
2019-02-03T02:40:12.080Z,35.55
2019-02-03T02:42:04.918Z,28.73
2019-02-03T02:44:06.273Z,32.60
2019-02-03T02:46:07.700Z,30.90
2019-02-03T02:48:09.075Z,31.40
2019-02-03T02:50:27.216Z,29.60
2019-02-03T02:52:28.740Z,29.77
2019-02-03T02:54:30.128Z,28.12
2019-02-03T02:56:31.661Z,31.48
2019-02-03T02:58:33.107Z,34.03
2019-02-03T03:00:34.464Z,32.03
2019-02-03T03:02:35.841Z,35.73
2019-02-03T03:04:37.260Z,31.70
2019-02-03T03:06:38.620Z,35.05
2019-02-03T03:08:40.001Z,35.73
2019-02-03T03:10:41.421Z,36.48
2019-02-03T03:12:42.981Z,37.28
2019-02-03T03:14:44.566Z,36.60
2019-02-03T03:16:46.268Z,36.48
2019-02-03T03:18:47.689Z,38.55
2019-02-03T03:20:49.052Z,38.33
2019-02-03T03:22:50.637Z,40.88
2019-02-03T03:24:52.056Z,40.58
2019-02-03T03:26:53.494Z,41.53
2019-02-03T03:28:54.913Z,42.67
2019-02-03T03:30:56.299Z,42.38
2019-02-03T03:32:58.153Z,41.13
2019-02-03T03:34:59.966Z,45.92
2019-02-03T03:37:01.332Z,45.28
2019-02-03T03:39:06.608Z,43.38
2019-02-03T03:41:08.007Z,43.68
2019-02-03T03:43:09.384Z,46.33
2019-02-03T03:45:11.564Z,46.83
2019-02-03T03:47:13.272Z,45.90
2019-02-03T03:49:14.657Z,43.33
2019-02-03T03:51:16.029Z,42.93
2019-02-03T03:53:17.777Z,44.67
2019-02-03T03:55:19.139Z,43.40
2019-02-03T03:57:20.516Z,44.83
2019-02-03T03:59:21.952Z,44.27
2019-02-03T04:01:23.319Z,49.23
2019-02-03T04:03:24.683Z,43.60
2019-02-03T04:05:26.103Z,44.50
2019-02-03T04:07:27.480Z,41.90
2019-02-03T04:09:28.843Z,42.93
2019-02-03T04:11:30.756Z,42.75
2019-02-03T04:13:32.173Z,42.90
2019-02-03T04:15:33.535Z,45.08
2019-02-03T04:17:34.901Z,44.85
2019-02-03T04:19:36.358Z,41.65
2019-02-03T04:21:37.713Z,43.30
2019-02-03T04:23:39.075Z,42.65
2019-02-03T04:25:40.505Z,41.60
2019-02-03T04:27:42.302Z,41.75
2019-02-03T04:29:43.888Z,43.02
2019-02-03T04:31:45.263Z,40.92
2019-02-03T04:33:46.728Z,43.05
2019-02-03T04:35:48.089Z,44.65
2019-02-03T04:37:49.775Z,41.95
2019-02-03T04:39:51.187Z,40.45
2019-02-03T04:41:52.553Z,41.28
2019-02-03T04:43:53.916Z,41.77
2019-02-03T04:45:55.345Z,42.38
2019-02-03T04:47:56.778Z,39.85
2019-02-03T04:49:58.144Z,41.95
2019-02-03T04:51:59.531Z,44.45
2019-02-03T04:54:00.963Z,42.78
2019-02-03T04:56:02.919Z,41.18
2019-02-03T04:58:04.278Z,46.60
2019-02-03T05:00:13.763Z,44.00
2019-02-03T05:02:15.122Z,44.42
2019-02-03T05:04:16.485Z,46.60
2019-02-03T05:06:18.329Z,46.60
2019-02-03T05:08:19.722Z,42.48
2019-02-03T05:10:21.353Z,46.37
2019-02-03T05:12:22.789Z,41.90
2019-02-03T05:14:24.191Z,42.43
2019-02-03T05:16:25.541Z,42.90
2019-02-03T05:18:26.966Z,45.10
2019-02-03T05:20:28.336Z,46.95
2019-02-03T05:22:29.717Z,47.10
2019-02-03T05:24:31.197Z,46.35
2019-02-03T05:26:32.575Z,45.35
2019-02-03T05:28:33.940Z,45.95
2019-02-03T05:30:37.274Z,48.10
2019-02-03T05:32:38.740Z,44.20
2019-02-03T05:34:40.197Z,43.00
2019-02-03T05:36:41.552Z,44.75
2019-02-03T05:38:42.932Z,46.50
2019-02-03T05:40:44.356Z,41.18
2019-02-03T05:42:45.723Z,44.80
2019-02-03T05:44:47.109Z,42.67
2019-02-03T05:46:48.703Z,44.40
2019-02-03T05:48:50.085Z,42.38
2019-02-03T05:50:51.863Z,49.10
2019-02-03T05:52:53.837Z,41.42
2019-02-03T05:54:55.288Z,43.42
2019-02-03T05:56:56.667Z,42.30
2019-02-03T05:58:58.080Z,44.95
2019-02-03T06:00:59.464Z,43.75
2019-02-03T06:03:00.865Z,42.83
2019-02-03T06:05:03.927Z,46.53
2019-02-03T06:07:05.341Z,47.48
2019-02-03T06:09:07.211Z,44.58
2019-02-03T06:11:08.578Z,46.68
2019-02-03T06:13:10.183Z,48.00
2019-02-03T06:15:11.953Z,49.53
2019-02-03T06:17:13.530Z,52.05
2019-02-03T06:19:14.947Z,46.08
2019-02-03T06:21:16.763Z,45.00
2019-02-03T06:23:18.173Z,44.20
2019-02-03T06:25:19.647Z,48.00
2019-02-03T06:27:21.411Z,49.48
2019-02-03T06:29:22.863Z,51.18
2019-02-03T06:31:24.243Z,51.98
2019-02-03T06:33:25.649Z,44.05
2019-02-03T06:35:27.024Z,49.00
2019-02-03T06:37:28.458Z,47.33
2019-02-03T06:39:29.914Z,50.78
2019-02-03T06:41:31.286Z,54.05
2019-02-03T06:43:32.652Z,55.48
2019-02-03T06:45:38.802Z,48.00
2019-02-03T06:47:40.171Z,47.93
2019-02-03T06:49:41.678Z,49.55
2019-02-03T06:51:43.054Z,50.17
2019-02-03T06:53:44.433Z,53.73
2019-02-03T06:55:45.843Z,51.35
2019-02-03T06:57:47.221Z,61.63
2019-02-03T06:59:51.086Z,51.65
2019-02-03T07:01:51.884Z,50.50
2019-02-03T07:03:53.715Z,52.17
2019-02-03T07:05:55.092Z,44.42
2019-02-03T07:07:56.783Z,52.98
2019-02-03T07:10:00.708Z,47.45
2019-02-03T07:12:01.441Z,49.85
2019-02-03T07:14:03.558Z,46.85
2019-02-03T07:16:04.945Z,48.58
2019-02-03T07:18:06.316Z,45.03
2019-02-03T07:20:16.543Z,48.50
2019-02-03T07:22:17.910Z,46.18
2019-02-03T07:24:19.285Z,56.35
2019-02-03T07:26:20.799Z,50.90
2019-02-03T07:28:22.168Z,51.48
2019-02-03T07:30:25.929Z,45.75
2019-02-03T07:32:27.609Z,42.65
2019-02-03T07:34:29.086Z,47.85
2019-02-03T07:36:30.539Z,46.92
2019-02-03T07:38:31.923Z,46.77
2019-02-03T07:40:33.359Z,48.48
2019-02-03T07:42:34.739Z,44.03
2019-02-03T07:44:36.110Z,45.88
2019-02-03T07:46:37.507Z,47.08
2019-02-03T07:48:39.004Z,47.98
2019-02-03T07:50:40.783Z,50.90
2019-02-03T07:52:42.207Z,54.90
2019-02-03T07:54:43.574Z,54.35
2019-02-03T07:56:45.000Z,57.60
2019-02-03T07:58:46.708Z,49.67
2019-02-03T08:00:48.096Z,100.78
2019-02-03T08:02:49.465Z,133.12
2019-02-03T08:04:50.858Z,92.22
2019-02-03T08:06:52.235Z,77.17
2019-02-03T08:08:53.652Z,94.40
2019-02-03T08:10:55.069Z,98.20
2019-02-03T08:12:56.580Z,61.30
2019-02-03T08:14:57.970Z,59.38
2019-02-03T08:16:59.755Z,51.95
2019-02-03T08:19:01.186Z,64.15
2019-02-03T08:21:02.573Z,61.75
2019-02-03T08:23:04.084Z,51.53
2019-02-03T08:25:10.468Z,52.58
2019-02-03T08:27:12.073Z,50.65
2019-02-03T08:29:14.728Z,48.13
2019-02-03T08:31:16.492Z,47.80
2019-02-03T08:33:17.858Z,44.30
2019-02-03T08:35:20.096Z,48.35
2019-02-03T08:37:21.699Z,45.90
2019-02-03T08:39:23.067Z,44.13
2019-02-03T08:41:24.496Z,50.30
2019-02-03T08:43:25.888Z,47.93
2019-02-03T08:45:27.253Z,45.90
2019-02-03T08:47:28.682Z,49.05
2019-02-03T08:49:30.105Z,47.85
2019-02-03T08:51:32.398Z,52.38
2019-02-03T08:53:33.942Z,53.15
2019-02-03T08:55:35.375Z,45.50
2019-02-03T08:57:36.736Z,42.85
2019-02-03T08:59:38.099Z,39.63
2019-02-03T09:01:40.055Z,40.55
2019-02-03T09:03:41.420Z,41.37
2019-02-03T09:05:42.789Z,38.40
2019-02-03T09:07:44.296Z,40.17
2019-02-03T09:09:45.675Z,40.67
2019-02-03T09:11:47.162Z,40.03
2019-02-03T09:13:48.586Z,38.90
2019-02-03T09:15:51.966Z,39.45
2019-02-03T09:17:53.259Z,37.10
2019-02-03T09:19:57.969Z,38.73
2019-02-03T09:21:58.330Z,35.88
2019-02-03T09:23:59.714Z,38.58
2019-02-03T09:26:01.130Z,38.60
2019-02-03T09:28:03.538Z,36.73
2019-02-03T09:30:14.113Z,38.10
2019-02-03T09:32:15.491Z,40.45
2019-02-03T09:34:17.129Z,41.95
2019-02-03T09:36:18.606Z,41.58
2019-02-03T09:38:20.144Z,43.48
2019-02-03T09:40:28.004Z,43.55
2019-02-03T09:42:29.374Z,41.73
2019-02-03T09:44:30.798Z,47.30
2019-02-03T09:46:32.229Z,45.48
2019-02-03T09:48:33.639Z,43.13
2019-02-03T09:50:35.231Z,45.38
2019-02-03T09:52:36.609Z,44.53
2019-02-03T09:54:37.969Z,46.53
2019-02-03T09:56:39.478Z,45.03
2019-02-03T09:58:40.842Z,42.40
2019-02-03T10:00:42.200Z,44.48
2019-02-03T10:02:43.813Z,47.45
2019-02-03T10:04:45.180Z,44.27
2019-02-03T10:06:46.943Z,45.23
2019-02-03T10:08:48.375Z,45.90
2019-02-03T10:10:49.771Z,46.73
2019-02-03T10:12:51.245Z,40.38
2019-02-03T10:14:52.643Z,45.55
2019-02-03T10:16:54.084Z,43.20
2019-02-03T10:18:55.464Z,44.13
2019-02-03T10:20:56.834Z,45.90
2019-02-03T10:23:01.069Z,46.25
2019-02-03T10:25:10.830Z,42.80
2019-02-03T10:27:14.076Z,43.60
2019-02-03T10:29:15.731Z,41.02
2019-02-03T10:31:19.738Z,41.25
2019-02-03T10:33:22.114Z,38.23
2019-02-03T10:35:29.939Z,37.42
2019-02-03T10:37:32.363Z,40.20
2019-02-03T10:39:34.830Z,40.92
2019-02-03T10:41:36.991Z,44.40
2019-02-03T10:43:39.126Z,38.30
2019-02-03T10:45:41.080Z,41.95
2019-02-03T10:47:43.279Z,37.50
2019-02-03T10:49:46.757Z,40.60
2019-02-03T10:51:48.003Z,39.98
2019-02-03T10:53:49.430Z,36.42
2019-02-03T10:55:51.119Z,39.92
2019-02-03T10:57:53.140Z,38.08
2019-02-03T10:59:54.783Z,37.08
2019-02-03T11:01:56.737Z,40.33
2019-02-03T11:03:58.312Z,38.08
2019-02-03T11:06:00.216Z,37.88
2019-02-03T11:08:02.044Z,38.00
2019-02-03T11:10:09.210Z,36.58
2019-02-03T11:12:10.814Z,37.90
2019-02-03T11:14:12.690Z,35.40
2019-02-03T11:16:14.441Z,32.03
2019-02-03T11:18:16.345Z,34.90
2019-02-03T11:20:24.157Z,38.38
2019-02-03T11:22:26.211Z,34.40
2019-02-03T11:24:27.860Z,35.75
2019-02-03T11:26:29.874Z,35.83
2019-02-03T11:28:31.359Z,38.08
2019-02-03T11:30:33.025Z,35.85
2019-02-03T11:32:34.479Z,35.45
2019-02-03T11:34:35.913Z,37.05
2019-02-03T11:36:37.301Z,38.10
2019-02-03T11:38:38.742Z,37.88
2019-02-03T11:40:40.108Z,36.55
2019-02-03T11:42:41.555Z,37.83
2019-02-03T11:44:42.997Z,31.23
2019-02-03T11:46:44.379Z,37.35
2019-02-03T11:48:45.764Z,31.57
2019-02-03T11:50:48.793Z,34.00
2019-02-03T11:52:50.166Z,34.67
2019-02-03T11:54:51.532Z,32.67
2019-02-03T11:56:53.269Z,35.03
2019-02-03T11:58:54.660Z,36.20
2019-02-03T12:00:56.229Z,38.10
2019-02-03T12:02:57.884Z,32.13
2019-02-03T12:04:59.314Z,33.63
2019-02-03T12:07:00.704Z,31.02
2019-02-03T12:09:06.092Z,35.13
2019-02-03T12:11:07.530Z,29.23
2019-02-03T12:13:08.892Z,32.80
2019-02-03T12:15:17.700Z,32.55
2019-02-03T12:17:19.203Z,32.28
2019-02-03T12:19:20.639Z,30.90
2019-02-03T12:21:22.032Z,28.20
2019-02-03T12:23:23.508Z,30.30
2019-02-03T12:25:35.808Z,31.80
2019-02-03T12:27:38.852Z,30.08
2019-02-03T12:29:40.373Z,30.88
2019-02-03T12:31:41.882Z,30.70
2019-02-03T12:33:43.256Z,28.70
2019-02-03T12:35:44.684Z,30.65
2019-02-03T12:37:46.453Z,31.07
2019-02-03T12:39:47.884Z,31.10
2019-02-03T12:41:49.255Z,34.10
2019-02-03T12:43:50.637Z,29.67
2019-02-03T12:45:52.466Z,30.45
2019-02-03T12:47:54.141Z,33.35
2019-02-03T12:49:55.506Z,31.95
2019-02-03T12:51:56.942Z,30.80
2019-02-03T12:53:58.392Z,28.57
2019-02-03T12:55:59.759Z,26.80
2019-02-03T12:58:01.349Z,28.20
2019-02-03T13:00:13.643Z,34.92
2019-02-03T13:02:15.117Z,32.05
2019-02-03T13:04:16.489Z,30.88
2019-02-03T13:06:17.929Z,30.75
2019-02-03T13:08:19.363Z,30.30
2019-02-03T13:10:25.138Z,29.75
2019-02-03T13:12:27.129Z,30.45
2019-02-03T13:14:30.509Z,33.18
2019-02-03T13:16:32.035Z,32.00
2019-02-03T13:18:33.622Z,33.78
2019-02-03T13:20:35.229Z,30.32
2019-02-03T13:22:36.608Z,33.28
2019-02-03T13:24:38.024Z,32.13
2019-02-03T13:26:39.409Z,32.55
2019-02-03T13:28:40.777Z,30.57
2019-02-03T13:30:48.021Z,29.23
2019-02-03T13:32:49.404Z,30.52
2019-02-03T13:34:50.791Z,28.60
2019-02-03T13:36:54.267Z,28.20
2019-02-03T13:38:55.632Z,29.65
2019-02-03T13:40:57.014Z,29.23
2019-02-03T13:42:58.645Z,30.15
2019-02-03T13:45:00.189Z,30.08
2019-02-03T13:47:01.574Z,30.60
2019-02-03T13:49:03.410Z,29.32
2019-02-03T13:51:04.816Z,25.08
2019-02-03T13:53:06.271Z,29.40
2019-02-03T13:55:09.715Z,26.65
2019-02-03T13:57:11.100Z,28.80
2019-02-03T13:59:12.466Z,26.33
2019-02-03T14:01:14.191Z,25.70
2019-02-03T14:03:16.651Z,25.72
2019-02-03T14:05:18.182Z,27.35
2019-02-03T14:07:19.618Z,28.90
2019-02-03T14:09:21.018Z,28.02
2019-02-03T14:11:23.006Z,23.90
2019-02-03T14:13:24.799Z,28.55
2019-02-03T14:15:26.465Z,28.20
2019-02-03T14:17:27.852Z,23.85
2019-02-03T14:19:29.302Z,25.12
2019-02-03T14:21:30.673Z,26.00
2019-02-03T14:23:32.071Z,27.42
2019-02-03T14:25:33.499Z,25.17
2019-02-03T14:27:35.805Z,26.82
2019-02-03T14:29:37.470Z,26.20
2019-02-03T14:31:38.912Z,24.25
2019-02-03T14:33:40.293Z,26.37
2019-02-03T14:35:41.772Z,26.07
2019-02-03T14:37:43.316Z,27.48
2019-02-03T14:39:44.689Z,24.40
2019-02-03T14:41:46.393Z,24.15
2019-02-03T14:43:47.796Z,28.38
2019-02-03T14:45:49.172Z,27.17
2019-02-03T14:47:51.224Z,26.27
2019-02-03T14:49:52.622Z,26.30
2019-02-03T14:51:54.092Z,27.10
2019-02-03T14:53:55.549Z,26.15
2019-02-03T14:55:56.926Z,25.50
2019-02-03T14:57:58.374Z,25.62
2019-02-03T14:59:59.866Z,22.75
2019-02-03T15:02:01.362Z,26.73
2019-02-03T15:04:03.498Z,26.55
2019-02-03T15:06:06.780Z,23.52
2019-02-03T15:08:08.280Z,27.30
2019-02-03T15:10:13.377Z,23.50
2019-02-03T15:12:14.819Z,23.12
2019-02-03T15:14:16.281Z,23.18
2019-02-03T15:16:17.716Z,25.17
2019-02-03T15:18:19.308Z,24.65
2019-02-03T15:20:24.110Z,23.20
2019-02-03T15:22:25.849Z,22.17
2019-02-03T15:24:27.244Z,22.20
2019-02-03T15:26:28.647Z,22.35
2019-02-03T15:28:30.290Z,25.12
2019-02-03T15:30:42.207Z,22.50
2019-02-03T15:32:43.702Z,22.62
2019-02-03T15:34:45.157Z,21.68
2019-02-03T15:36:46.534Z,22.52
2019-02-03T15:38:47.912Z,24.32
2019-02-03T15:40:49.355Z,22.80
2019-02-03T15:42:50.743Z,21.55
2019-02-03T15:44:52.537Z,22.70
2019-02-03T15:46:54.145Z,22.07
2019-02-03T15:48:55.547Z,20.72
2019-02-03T15:50:57.026Z,23.18
2019-02-03T15:52:58.436Z,21.75
2019-02-03T15:54:59.826Z,23.60
2019-02-03T15:57:01.365Z,22.30
2019-02-03T15:59:02.739Z,22.77
2019-02-03T16:01:04.170Z,22.65
2019-02-03T16:03:08.573Z,23.62
2019-02-03T16:05:10.421Z,21.52
2019-02-03T16:07:11.847Z,20.97
2019-02-03T16:09:13.298Z,22.05
2019-02-03T16:11:14.865Z,23.02
2019-02-03T16:13:16.233Z,20.12
2019-02-03T16:15:17.813Z,21.65
2019-02-03T16:17:19.242Z,23.18
2019-02-03T16:19:20.619Z,34.67
2019-02-03T16:21:22.281Z,22.42
2019-02-03T16:23:23.806Z,29.07
2019-02-03T16:25:25.174Z,24.18
2019-02-03T16:27:26.664Z,22.65
2019-02-03T16:29:28.111Z,23.18
2019-02-03T16:31:29.489Z,33.70
2019-02-03T16:33:30.869Z,21.55
2019-02-03T16:35:32.409Z,27.90
2019-02-03T16:37:33.787Z,33.55
2019-02-03T16:39:35.151Z,22.10
2019-02-03T16:41:36.697Z,25.97
2019-02-03T16:43:48.656Z,22.67
2019-02-03T16:45:41.439Z,21.40
2019-02-03T16:47:43.017Z,21.37
2019-02-03T16:49:44.445Z,20.55
2019-02-03T16:51:45.819Z,20.60
2019-02-03T16:53:47.250Z,20.37
2019-02-03T16:55:48.635Z,20.40
2019-02-03T16:57:50.116Z,21.00
2019-02-03T16:59:51.548Z,21.25
2019-02-03T17:01:52.944Z,20.02
2019-02-03T17:03:54.322Z,21.95
2019-02-03T17:05:55.813Z,19.42
2019-02-03T17:08:00.047Z,20.95
2019-02-03T17:10:01.670Z,20.20
2019-02-03T17:12:03.575Z,19.75
2019-02-03T17:14:05.549Z,20.92
2019-02-03T17:16:07.025Z,22.17
2019-02-03T17:18:10.844Z,22.10
2019-02-03T17:20:12.436Z,21.35
2019-02-03T17:22:13.825Z,19.57
2019-02-03T17:24:15.250Z,20.88
2019-02-03T17:26:16.707Z,21.85
2019-02-03T17:28:18.192Z,20.55
2019-02-03T17:30:19.755Z,20.10
2019-02-03T17:32:21.497Z,20.52
2019-02-03T17:34:22.984Z,20.50
2019-02-03T17:36:24.385Z,20.40
2019-02-03T17:38:25.833Z,20.57
2019-02-03T17:40:27.213Z,21.42
2019-02-03T17:42:28.572Z,21.12
2019-02-03T17:44:30.006Z,21.77
2019-02-03T17:46:31.393Z,23.75
2019-02-03T17:48:32.772Z,22.82
2019-02-03T17:50:34.302Z,23.32
2019-02-03T17:52:39.012Z,21.82
2019-02-03T17:54:38.988Z,18.90
2019-02-03T17:56:40.372Z,19.37
2019-02-03T17:58:41.994Z,25.48
2019-02-03T18:00:45.434Z,21.50
2019-02-03T18:02:46.821Z,21.73
2019-02-03T18:04:48.183Z,20.55
2019-02-03T18:06:49.632Z,19.90
2019-02-03T18:08:51.021Z,21.25
2019-02-03T18:10:52.476Z,22.07
2019-02-03T18:12:54.309Z,34.15
2019-02-03T18:14:55.677Z,18.90
2019-02-03T18:16:57.361Z,20.85
2019-02-03T18:18:58.932Z,21.52
2019-02-03T18:21:00.655Z,19.52
2019-02-03T18:23:02.725Z,19.07
2019-02-03T18:25:07.795Z,21.93
2019-02-03T18:27:09.388Z,21.48
2019-02-03T18:29:10.788Z,30.32
2019-02-03T18:31:12.273Z,21.80
2019-02-03T18:33:13.885Z,19.02
2019-02-03T18:35:15.663Z,21.40
2019-02-03T18:37:19.336Z,22.00
2019-02-03T18:39:20.385Z,18.07
2019-02-03T18:41:21.776Z,20.43
2019-02-03T18:43:23.464Z,24.12
2019-02-03T18:45:25.405Z,31.90
2019-02-03T18:47:26.976Z,19.20
2019-02-03T18:49:28.418Z,19.57
2019-02-03T18:51:29.910Z,19.48
2019-02-03T18:53:31.590Z,16.48
2019-02-03T18:55:40.361Z,22.27
2019-02-03T18:57:41.930Z,20.43
2019-02-03T18:59:43.329Z,20.20
2019-02-03T19:01:44.790Z,19.10
2019-02-03T19:03:46.302Z,19.87
2019-02-03T19:05:47.674Z,18.45
2019-02-03T19:07:49.768Z,19.95
2019-02-03T19:09:51.160Z,20.05
2019-02-03T19:11:52.996Z,20.90
2019-02-03T19:13:54.430Z,19.27
2019-02-03T19:15:55.914Z,19.12
2019-02-03T19:17:57.363Z,18.80
2019-02-03T19:19:58.755Z,20.85
2019-02-03T19:22:00.120Z,19.17
2019-02-03T19:24:01.583Z,17.25
2019-02-03T19:26:03.684Z,20.50
2019-02-03T19:28:05.073Z,19.52
2019-02-03T19:30:12.124Z,19.75
2019-02-03T19:32:14.621Z,17.90
2019-02-03T19:34:16.096Z,17.45
2019-02-03T19:36:17.567Z,20.77
2019-02-03T19:38:19.099Z,17.02
2019-02-03T19:40:29.388Z,17.65
2019-02-03T19:42:30.782Z,16.93
2019-02-03T19:44:32.197Z,16.85
2019-02-03T19:46:33.680Z,16.55
2019-02-03T19:48:35.070Z,18.90
2019-02-03T19:50:39.089Z,17.17
2019-02-03T19:52:40.719Z,19.95
2019-02-03T19:54:42.088Z,18.05
2019-02-03T19:56:44.559Z,15.98
2019-02-03T19:58:45.997Z,15.30
2019-02-03T20:00:47.361Z,14.73
2019-02-03T20:02:48.843Z,13.28
2019-02-03T20:04:50.265Z,14.07
2019-02-03T20:06:51.764Z,13.50
2019-02-03T20:08:53.306Z,19.42
2019-02-03T20:10:54.684Z,12.98
2019-02-03T20:12:56.685Z,11.53
2019-02-03T20:15:09.331Z,11.90
2019-02-03T20:17:01.432Z,19.15
2019-02-03T20:19:03.218Z,15.50
2019-02-03T20:21:04.645Z,13.45
2019-02-03T20:23:06.938Z,10.48
2019-02-03T20:25:10.507Z,10.75
2019-02-03T20:27:11.882Z,18.45
2019-02-03T20:29:13.316Z,11.78
2019-02-03T20:31:14.686Z,10.13
2019-02-03T20:33:16.070Z,30.37
2019-02-03T20:35:20.919Z,11.85
2019-02-03T20:37:22.324Z,16.67
2019-02-03T20:39:23.712Z,8.50
2019-02-03T20:41:25.127Z,8.73
2019-02-03T20:43:26.499Z,10.55
2019-02-03T20:45:28.110Z,8.88
2019-02-03T20:47:29.562Z,16.48
2019-02-03T20:49:31.008Z,18.20
2019-02-03T20:51:32.469Z,11.55
2019-02-03T20:53:33.985Z,13.32
2019-02-03T20:55:35.372Z,15.78
2019-02-03T20:57:36.847Z,8.70
2019-02-03T20:59:38.211Z,7.67
2019-02-03T21:01:39.927Z,8.48
2019-02-03T21:03:41.509Z,8.05
2019-02-03T21:05:42.981Z,9.48
2019-02-03T21:07:45.233Z,6.95
2019-02-03T21:09:46.718Z,12.58
2019-02-03T21:11:48.120Z,8.40
2019-02-03T21:13:49.561Z,7.25
2019-02-03T21:15:51.045Z,7.30
2019-02-03T21:17:52.766Z,10.10
2019-02-03T21:19:54.292Z,9.03
2019-02-03T21:21:56.043Z,9.73
2019-02-03T21:23:57.847Z,8.73
2019-02-03T21:25:59.539Z,9.15
2019-02-03T21:28:01.777Z,7.97
2019-02-03T21:30:26.783Z,7.70
2019-02-03T21:32:28.583Z,7.12
2019-02-03T21:34:33.125Z,9.65
2019-02-03T21:36:33.861Z,8.28
2019-02-03T21:38:35.535Z,7.33
2019-02-03T21:40:37.388Z,9.58
2019-02-03T21:42:39.135Z,8.35
2019-02-03T21:44:40.897Z,7.65
2019-02-03T21:46:42.533Z,6.55
2019-02-03T21:48:44.252Z,7.67
2019-02-03T21:50:46.005Z,6.75
2019-02-03T21:52:48.033Z,7.37
2019-02-03T21:54:49.675Z,6.40
2019-02-03T21:56:51.441Z,7.65
2019-02-03T21:58:53.281Z,7.12
2019-02-03T22:00:55.057Z,7.37
2019-02-03T22:02:56.996Z,7.45
2019-02-03T22:04:58.701Z,25.30
2019-02-03T22:07:00.383Z,8.13
2019-02-03T22:09:05.300Z,6.97
2019-02-03T22:11:06.977Z,8.00
2019-02-03T22:13:08.666Z,10.10
2019-02-03T22:15:10.642Z,6.90
2019-02-03T22:17:12.320Z,7.25
2019-02-03T22:19:14.036Z,7.00
2019-02-03T22:21:15.753Z,7.90
2019-02-03T22:23:17.522Z,6.97
2019-02-03T22:25:19.274Z,8.25
2019-02-03T22:27:21.519Z,9.15
2019-02-03T22:29:23.160Z,6.65
2019-02-03T22:31:24.915Z,7.92
2019-02-03T22:33:26.697Z,8.63
2019-02-03T22:35:28.381Z,7.50
2019-02-03T22:37:30.102Z,8.35
2019-02-03T22:39:31.767Z,17.35
2019-02-03T22:41:33.437Z,10.35
2019-02-03T22:43:35.165Z,7.83
2019-02-03T22:45:36.863Z,9.53
2019-02-03T22:47:38.723Z,8.03
2019-02-03T22:49:40.723Z,8.28
2019-02-03T22:51:42.365Z,8.05
2019-02-03T22:53:44.171Z,7.87
2019-02-03T22:55:45.888Z,8.78
2019-02-03T22:57:47.644Z,7.60
2019-02-03T22:59:49.330Z,9.03
2019-02-03T23:01:51.378Z,9.10
2019-02-03T23:03:53.054Z,7.95
2019-02-03T23:05:55.076Z,9.48
2019-02-03T23:07:56.784Z,9.00
2019-02-03T23:09:58.492Z,9.15
2019-02-03T23:12:00.472Z,9.33
2019-02-03T23:14:04.594Z,9.78
2019-02-03T23:16:06.033Z,8.40
2019-02-03T23:18:07.817Z,8.90
2019-02-03T23:20:09.780Z,11.30
2019-02-03T23:22:11.857Z,10.00
2019-02-03T23:24:13.635Z,8.90
2019-02-03T23:26:15.812Z,10.60
2019-02-03T23:28:17.496Z,8.85
2019-02-03T23:30:19.271Z,10.25
2019-02-03T23:32:20.992Z,9.58
2019-02-03T23:34:22.667Z,10.10
2019-02-03T23:36:25.843Z,9.10
2019-02-03T23:38:27.566Z,10.03
2019-02-03T23:40:29.638Z,10.20
2019-02-03T23:42:31.413Z,10.30
2019-02-03T23:44:33.235Z,11.35
2019-02-03T23:46:34.909Z,10.85
2019-02-03T23:48:36.582Z,10.35
2019-02-03T23:50:38.568Z,10.58
2019-02-03T23:52:40.238Z,11.18
2019-02-03T23:54:41.911Z,10.55
2019-02-03T23:56:43.868Z,11.25
2019-02-03T23:58:45.551Z,9.43
